createdAt,value
2023-01-15T00:01:04.508Z,92800.13
2023-01-15T00:04:08.500Z,92791.09
2023-01-15T00:07:11.649Z,92804.00
2023-01-15T00:10:14.821Z,92795.16
2023-01-15T00:13:17.913Z,92784.31
2023-01-15T00:16:23.980Z,92785.44
2023-01-15T00:19:27.209Z,92778.19
2023-01-15T00:22:30.721Z,92786.53
2023-01-15T00:25:52.362Z,92782.03
2023-01-15T00:28:56.205Z,92787.25
2023-01-15T00:32:09.151Z,92789.06
2023-01-15T00:35:15.170Z,92782.53
2023-01-15T00:38:18.933Z,92778.44
2023-01-15T00:41:23.201Z,92785.69
2023-01-15T00:44:29.498Z,92782.97
2023-01-15T00:47:35.975Z,92783.41
2023-01-15T00:50:40.472Z,92793.16
2023-01-15T00:53:44.287Z,92787.72
2023-01-15T00:56:47.935Z,92786.41
2023-01-15T00:59:52.259Z,92779.59
2023-01-15T01:02:57.456Z,92774.41
2023-01-15T01:06:04.556Z,92771.69
2023-01-15T01:09:15.272Z,92771.91
2023-01-15T01:12:22.119Z,92773.28
2023-01-15T01:15:26.643Z,92778.44
2023-01-15T01:18:30.529Z,92766.69
2023-01-15T01:21:34.146Z,92763.50
2023-01-15T01:24:39.844Z,92764.41
2023-01-15T01:27:48.735Z,92757.59
2023-01-15T01:30:55.215Z,92759.34
2023-01-15T01:34:01.878Z,92756.56
2023-01-15T01:37:05.738Z,92749.97
2023-01-15T01:40:10.152Z,92750.81
2023-01-15T01:43:32.239Z,92752.81
2023-01-15T01:46:37.596Z,92744.41
2023-01-15T01:49:42.416Z,92753.66
2023-01-15T01:53:09.784Z,92759.44
2023-01-15T01:56:13.406Z,92760.91
2023-01-15T01:59:18.360Z,92756.41
2023-01-15T02:02:23.798Z,92760.84
2023-01-15T02:05:31.860Z,92763.31
2023-01-15T02:08:42.401Z,92763.78
2023-01-15T02:11:45.709Z,92765.41
2023-01-15T02:15:04.513Z,92769.38
2023-01-15T02:18:35.440Z,92767.34
2023-01-15T02:22:08.333Z,92771.59
2023-01-15T02:25:21.099Z,92768.94
2023-01-15T02:28:32.006Z,92762.03
2023-01-15T02:31:39.279Z,92764.75
2023-01-15T02:34:51.048Z,92766.03
2023-01-15T02:38:02.449Z,92755.94
2023-01-15T02:41:08.325Z,92768.41
2023-01-15T02:44:19.268Z,92753.22
2023-01-15T02:47:29.693Z,92750.72
2023-01-15T02:50:40.063Z,92746.69
2023-01-15T02:53:50.274Z,92754.09
2023-01-15T02:56:58.326Z,92751.72
2023-01-15T03:00:06.417Z,92744.78
2023-01-15T03:03:48.867Z,92745.06
2023-01-15T03:07:10.777Z,92734.16
2023-01-15T03:10:15.907Z,92727.19
2023-01-15T03:13:44.778Z,92727.00
2023-01-15T03:16:57.760Z,92721.09
2023-01-15T03:20:18.299Z,92728.38
2023-01-15T03:23:26.253Z,92718.78
2023-01-15T03:26:39.461Z,92710.84
2023-01-15T03:29:49.182Z,92704.72
2023-01-15T03:32:55.011Z,92709.13
2023-01-15T03:36:01.859Z,92699.31
2023-01-15T03:39:18.681Z,92692.34
2023-01-15T03:43:17.604Z,92699.63
2023-01-15T03:46:43.333Z,92688.97
2023-01-15T03:49:58.421Z,92682.94
2023-01-15T03:53:21.270Z,92674.25
2023-01-15T03:56:51.294Z,92677.97
2023-01-15T03:59:58.973Z,92669.50
2023-01-15T04:03:05.166Z,92668.41
2023-01-15T04:06:11.296Z,92661.03
2023-01-15T04:09:16.428Z,92657.53
2023-01-15T04:12:21.180Z,92653.34
2023-01-15T04:15:33.951Z,92654.38
2023-01-15T04:18:46.961Z,92657.91
2023-01-15T04:21:54.167Z,92652.25
2023-01-15T04:25:00.542Z,92647.34
2023-01-15T04:28:04.262Z,92648.72
2023-01-15T04:31:11.224Z,92643.03
2023-01-15T04:34:20.638Z,92645.91
2023-01-15T04:37:25.502Z,92638.53
2023-01-15T04:40:50.837Z,92632.03
2023-01-15T04:47:32.476Z,92622.97
2023-01-15T04:50:40.421Z,92624.00
2023-01-15T04:53:48.947Z,92616.78
2023-01-15T04:57:16.094Z,92612.44
2023-01-15T05:00:19.640Z,92619.00
2023-01-15T05:03:22.725Z,92615.31
2023-01-15T05:06:29.365Z,92607.59
2023-01-15T05:09:33.146Z,92602.25
2023-01-15T05:12:36.169Z,92601.38
2023-01-15T05:15:41.334Z,92591.13
2023-01-15T05:18:45.736Z,92594.00
2023-01-15T05:21:48.979Z,92585.41
2023-01-15T05:24:52.514Z,92593.81
2023-01-15T05:27:55.629Z,92582.06
2023-01-15T05:30:58.867Z,92570.78
2023-01-15T05:34:02.711Z,92570.09
2023-01-15T05:37:05.793Z,92559.50
2023-01-15T05:40:09.643Z,92557.09
2023-01-15T05:43:12.842Z,92555.69
2023-01-15T05:46:15.929Z,92555.00
2023-01-15T05:49:21.956Z,92547.47
2023-01-15T05:52:25.115Z,92553.63
2023-01-15T05:55:28.736Z,92539.91
2023-01-15T05:58:32.560Z,92544.81
2023-01-15T06:01:36.597Z,92531.13
2023-01-15T06:04:43.011Z,92530.84
2023-01-15T06:07:46.085Z,92539.16
2023-01-15T06:10:50.880Z,92529.81
2023-01-15T06:13:54.316Z,92524.03
2023-01-15T06:16:57.519Z,92524.31
2023-01-15T06:20:00.593Z,92518.38
2023-01-15T06:23:04.284Z,92521.19
2023-01-15T06:26:17.334Z,92516.94
2023-01-15T06:29:21.443Z,92508.19
2023-01-15T06:32:24.678Z,92508.63
2023-01-15T06:35:28.189Z,92503.72
2023-01-15T06:38:31.288Z,92509.22
2023-01-15T06:41:54.009Z,92513.09
2023-01-15T06:45:15.729Z,92513.75
2023-01-15T06:48:19.799Z,92508.25
2023-01-15T06:51:24.122Z,92511.00
2023-01-15T06:54:27.467Z,92511.63
2023-01-15T06:57:31.281Z,92511.25
2023-01-15T07:00:35.366Z,92515.34
2023-01-15T07:03:38.605Z,92514.13
2023-01-15T07:06:42.025Z,92518.00
2023-01-15T07:09:45.761Z,92507.22
2023-01-15T07:12:48.911Z,92505.38
2023-01-15T07:15:52.106Z,92505.38
2023-01-15T07:18:58.565Z,92498.38
2023-01-15T07:22:01.983Z,92493.69
2023-01-15T07:25:05.692Z,92493.34
2023-01-15T07:28:09.021Z,92489.13
2023-01-15T07:31:12.164Z,92497.38
2023-01-15T07:34:15.722Z,92491.09
2023-01-15T07:37:19.167Z,92485.91
2023-01-15T07:40:22.474Z,92484.09
2023-01-15T07:43:43.780Z,92485.31
2023-01-15T07:47:05.879Z,92473.78
2023-01-15T07:50:13.095Z,92472.13
2023-01-15T07:53:16.133Z,92468.59
2023-01-15T07:56:19.302Z,92472.94
2023-01-15T07:59:22.539Z,92468.81
2023-01-15T08:02:25.640Z,92475.09
2023-01-15T08:05:29.174Z,92473.50
2023-01-15T08:08:32.325Z,92474.59
2023-01-15T08:11:53.996Z,92478.88
2023-01-15T08:15:15.812Z,92472.22
2023-01-15T08:18:19.139Z,92472.09
2023-01-15T08:21:22.446Z,92471.63
2023-01-15T08:24:25.840Z,92464.06
2023-01-15T08:27:29.729Z,92466.25
2023-01-15T08:30:32.833Z,92460.91
2023-01-15T08:33:36.230Z,92461.59
2023-01-15T08:36:39.474Z,92465.31
2023-01-15T08:39:42.584Z,92463.84
2023-01-15T08:42:45.716Z,92468.19
2023-01-15T08:45:49.026Z,92464.16
2023-01-15T08:48:52.243Z,92472.34
2023-01-15T08:51:55.382Z,92468.66
2023-01-15T08:54:58.514Z,92472.00
2023-01-15T08:58:01.786Z,92469.47
2023-01-15T09:01:09.821Z,92468.28
2023-01-15T09:04:18.597Z,92470.44
2023-01-15T09:07:21.896Z,92467.59
2023-01-15T09:10:25.520Z,92468.25
2023-01-15T09:13:30.455Z,92469.75
2023-01-15T09:16:33.980Z,92466.00
2023-01-15T09:19:37.100Z,92467.19
2023-01-15T09:22:40.738Z,92459.28
2023-01-15T09:25:56.627Z,92460.13
2023-01-15T09:29:00.691Z,92458.69
2023-01-15T09:32:03.924Z,92466.47
2023-01-15T09:35:07.541Z,92468.91
2023-01-15T09:38:16.377Z,92464.88
2023-01-15T09:41:50.769Z,92464.59
2023-01-15T09:45:14.919Z,92454.94
2023-01-15T09:48:34.425Z,92463.88
2023-01-15T09:51:55.212Z,92456.22
2023-01-15T09:55:08.662Z,92455.78
2023-01-15T09:58:14.732Z,92470.44
2023-01-15T10:01:21.553Z,92467.44
2023-01-15T10:04:43.751Z,92461.69
2023-01-15T10:08:07.387Z,92470.53
2023-01-15T10:11:16.636Z,92462.81
2023-01-15T10:14:40.392Z,92468.84
2023-01-15T10:17:49.894Z,92463.72
2023-01-15T10:21:09.188Z,92474.69
2023-01-15T10:24:18.287Z,92468.03
2023-01-15T10:27:24.460Z,92465.81
2023-01-15T10:30:54.146Z,92479.34
2023-01-15T10:34:22.908Z,92476.72
2023-01-15T10:37:31.501Z,92476.38
2023-01-15T10:41:02.358Z,92477.47
2023-01-15T10:44:21.726Z,92473.25
2023-01-15T10:47:34.185Z,92477.28
2023-01-15T10:50:37.959Z,92470.38
2023-01-15T10:54:03.001Z,92470.66
2023-01-15T10:57:20.394Z,92463.94
2023-01-15T11:00:25.150Z,92454.88
2023-01-15T11:03:37.734Z,92457.00
2023-01-15T11:06:41.217Z,92449.41
2023-01-15T11:09:44.854Z,92454.22
2023-01-15T11:13:38.187Z,92451.34
2023-01-15T11:17:02.578Z,92445.50
2023-01-15T11:20:18.920Z,92446.06
2023-01-15T11:23:24.257Z,92450.41
2023-01-15T11:26:33.108Z,92445.00
2023-01-15T11:29:38.513Z,92449.63
2023-01-15T11:32:42.355Z,92445.16
2023-01-15T11:35:51.449Z,92439.75
2023-01-15T11:38:56.197Z,92434.47
2023-01-15T11:42:20.100Z,92434.28
2023-01-15T11:45:43.852Z,92433.50
2023-01-15T11:49:08.808Z,92442.72
2023-01-15T11:52:22.421Z,92441.00
2023-01-15T11:55:27.814Z,92444.75
2023-01-15T11:58:40.259Z,92443.13
2023-01-15T12:02:01.252Z,92437.63
2023-01-15T12:05:06.464Z,92446.41
2023-01-15T12:08:38.597Z,92452.47
2023-01-15T12:11:50.602Z,92441.31
2023-01-15T12:15:07.723Z,92454.44
2023-01-15T12:18:46.367Z,92450.38
2023-01-15T12:22:05.794Z,92442.72
2023-01-15T12:25:33.162Z,92433.50
2023-01-15T12:28:41.361Z,92430.00
2023-01-15T12:31:53.760Z,92423.47
2023-01-15T12:35:26.656Z,92429.72
2023-01-15T12:38:45.352Z,92433.97
2023-01-15T12:42:16.823Z,92430.41
2023-01-15T12:45:29.528Z,92423.00
2023-01-15T12:48:48.193Z,92428.88
2023-01-15T12:52:01.307Z,92434.75
2023-01-15T12:55:07.480Z,92432.91
2023-01-15T12:58:51.052Z,92427.81
2023-01-15T13:02:20.535Z,92423.28
2023-01-15T13:05:38.290Z,92425.78
2023-01-15T13:09:00.287Z,92424.06
2023-01-15T13:12:03.879Z,92419.16
2023-01-15T13:15:08.541Z,92408.75
2023-01-15T13:18:27.328Z,92415.75
2023-01-15T13:21:35.891Z,92418.25
2023-01-15T13:24:56.810Z,92413.16
2023-01-15T13:28:03.563Z,92404.44
2023-01-15T13:31:12.200Z,92399.44
2023-01-15T13:34:20.343Z,92395.00
2023-01-15T13:37:33.230Z,92399.50
2023-01-15T13:40:44.864Z,92392.31
2023-01-15T13:43:48.300Z,92383.09
2023-01-15T13:47:13.893Z,92380.09
2023-01-15T13:50:28.842Z,92388.13
2023-01-15T13:53:45.829Z,92378.91
2023-01-15T13:56:49.037Z,92379.59
2023-01-15T13:59:52.301Z,92377.75
2023-01-15T14:02:58.209Z,92381.13
2023-01-15T14:06:04.793Z,92379.78
2023-01-15T14:09:12.285Z,92383.13
2023-01-15T14:12:44.322Z,92386.41
2023-01-15T14:16:16.825Z,92385.91
2023-01-15T14:20:05.214Z,92386.91
2023-01-15T14:23:46.251Z,92370.38
2023-01-15T14:26:55.202Z,92376.38
2023-01-15T14:30:12.467Z,92371.47
2023-01-15T14:33:21.381Z,92363.00
2023-01-15T14:36:30.876Z,92365.72
2023-01-15T14:39:50.717Z,92366.34
2023-01-15T14:43:03.029Z,92368.53
2023-01-15T14:46:27.531Z,92363.50
2023-01-15T14:49:32.496Z,92367.44
2023-01-15T14:52:36.155Z,92356.00
2023-01-15T14:55:53.543Z,92359.84
2023-01-15T14:59:26.723Z,92359.84
2023-01-15T15:02:42.839Z,92363.50
2023-01-15T15:05:47.871Z,92353.69
2023-01-15T15:08:53.195Z,92357.06
2023-01-15T15:12:21.667Z,92360.72
2023-01-15T15:15:27.479Z,92363.97
2023-01-15T15:18:45.407Z,92359.09
2023-01-15T15:21:50.108Z,92357.53
2023-01-15T15:24:56.029Z,92357.84
2023-01-15T15:28:07.263Z,92353.91
2023-01-15T15:31:12.245Z,92348.91
2023-01-15T15:34:30.679Z,92341.50
2023-01-15T15:37:35.633Z,92339.88
2023-01-15T15:40:39.791Z,92345.03
2023-01-15T15:44:11.862Z,92342.84
2023-01-15T15:47:43.477Z,92337.63
2023-01-15T15:50:48.980Z,92345.75
2023-01-15T15:53:52.176Z,92341.31
2023-01-15T15:57:18.587Z,92336.59
2023-01-15T16:00:29.230Z,92347.06
2023-01-15T16:03:33.585Z,92333.25
2023-01-15T16:06:37.800Z,92320.72
2023-01-15T16:09:43.363Z,92324.66
2023-01-15T16:12:54.787Z,92321.22
2023-01-15T16:16:00.304Z,92331.28
2023-01-15T16:19:04.176Z,92322.16
2023-01-15T16:22:09.643Z,92325.16
2023-01-15T16:25:27.432Z,92316.47
2023-01-15T16:28:39.856Z,92320.69
2023-01-15T16:31:43.022Z,92316.56
2023-01-15T16:34:46.191Z,92317.78
2023-01-15T16:38:01.400Z,92310.38
2023-01-15T16:41:05.077Z,92313.88
2023-01-15T16:44:09.173Z,92310.75
2023-01-15T16:47:24.544Z,92307.81
2023-01-15T16:50:31.969Z,92310.38
2023-01-15T16:53:41.252Z,92300.97
2023-01-15T16:56:44.513Z,92293.84
2023-01-15T16:59:47.433Z,92287.22
2023-01-15T17:02:51.849Z,92287.53
2023-01-15T17:06:16.811Z,92277.78
2023-01-15T17:09:20.903Z,92280.34
2023-01-15T17:12:35.024Z,92273.50
2023-01-15T17:15:40.694Z,92279.72
2023-01-15T17:18:44.675Z,92279.94
2023-01-15T17:21:48.143Z,92282.59
2023-01-15T17:24:59.716Z,92284.22
2023-01-15T17:28:04.408Z,92272.88
2023-01-15T17:31:15.537Z,92268.41
2023-01-15T17:34:24.045Z,92264.78
2023-01-15T17:37:27.240Z,92252.06
2023-01-15T17:40:33.295Z,92260.72
2023-01-15T17:43:37.071Z,92258.81
2023-01-15T17:46:40.278Z,92254.75
2023-01-15T17:49:43.314Z,92256.72
2023-01-15T17:52:46.952Z,92255.50
2023-01-15T17:56:08.353Z,92257.19
2023-01-15T17:59:31.205Z,92252.63
2023-01-15T18:02:53.802Z,92248.31
2023-01-15T18:05:57.340Z,92249.34
2023-01-15T18:09:03.605Z,92239.50
2023-01-15T18:12:07.355Z,92245.34
2023-01-15T18:15:10.887Z,92236.69
2023-01-15T18:18:16.462Z,92229.66
2023-01-15T18:21:19.535Z,92241.56
2023-01-15T18:24:22.823Z,92235.38
2023-01-15T18:27:30.601Z,92234.19
2023-01-15T18:30:34.750Z,92238.31
2023-01-15T18:33:38.063Z,92232.63
2023-01-15T18:36:41.871Z,92224.31
2023-01-15T18:39:44.739Z,92219.09
2023-01-15T18:43:06.261Z,92217.13
2023-01-15T18:46:35.599Z,92214.91
2023-01-15T18:49:40.007Z,92215.97
2023-01-15T18:52:52.785Z,92211.66
2023-01-15T18:56:02.849Z,92207.31
2023-01-15T18:59:14.305Z,92210.81
2023-01-15T19:02:22.357Z,92212.19
2023-01-15T19:05:25.822Z,92212.22
2023-01-15T19:08:28.888Z,92206.19
2023-01-15T19:11:32.284Z,92198.69
2023-01-15T19:14:53.869Z,92195.03
2023-01-15T19:18:15.241Z,92184.84
2023-01-15T19:21:18.525Z,92189.00
2023-01-15T19:24:21.667Z,92194.50
2023-01-15T19:27:24.959Z,92181.19
2023-01-15T19:30:29.451Z,92187.06
2023-01-15T19:33:33.198Z,92181.03
2023-01-15T19:36:36.259Z,92173.09
2023-01-15T19:39:39.341Z,92167.50
2023-01-15T19:43:00.906Z,92176.50
2023-01-15T19:46:22.689Z,92179.38
2023-01-15T19:49:44.262Z,92184.06
2023-01-15T19:52:56.218Z,92172.03
2023-01-15T19:55:59.254Z,92165.47
2023-01-15T19:59:02.282Z,92159.56
2023-01-15T20:02:05.510Z,92152.28
2023-01-15T20:05:09.852Z,92148.41
2023-01-15T20:08:15.032Z,92153.41
2023-01-15T20:11:18.139Z,92143.97
2023-01-15T20:14:21.311Z,92150.38
2023-01-15T20:17:25.217Z,92144.72
2023-01-15T20:20:28.365Z,92148.59
2023-01-15T20:23:31.640Z,92147.31
2023-01-15T20:26:34.831Z,92137.97
2023-01-15T20:29:38.050Z,92143.63
2023-01-15T20:32:44.189Z,92142.97
2023-01-15T20:35:47.303Z,92144.34
2023-01-15T20:38:50.310Z,92133.91
2023-01-15T20:42:11.932Z,92131.31
2023-01-15T20:45:15.262Z,92126.94
2023-01-15T20:48:36.841Z,92126.50
2023-01-15T20:51:39.940Z,92120.94
2023-01-15T20:54:43.174Z,92121.78
2023-01-15T20:57:47.066Z,92124.06
2023-01-15T21:00:51.307Z,92130.13
2023-01-15T21:03:54.541Z,92115.59
2023-01-15T21:06:57.667Z,92121.56
2023-01-15T21:10:00.869Z,92113.81
2023-01-15T21:13:04.031Z,92107.19
2023-01-15T21:16:07.900Z,92114.41
2023-01-15T21:19:11.041Z,92112.41
2023-01-15T21:22:14.240Z,92102.00
2023-01-15T21:25:17.430Z,92104.63
2023-01-15T21:28:20.633Z,92101.16
2023-01-15T21:31:23.911Z,92099.53
2023-01-15T21:34:27.209Z,92105.69
2023-01-15T21:37:30.816Z,92098.75
2023-01-15T21:40:33.583Z,92091.09
2023-01-15T21:43:55.347Z,92090.19
2023-01-15T21:47:04.362Z,92087.94
2023-01-15T21:50:07.883Z,92092.22
2023-01-15T21:53:10.987Z,92083.72
2023-01-15T21:56:14.374Z,92090.22
2023-01-15T21:59:17.649Z,92090.69
2023-01-15T22:02:22.413Z,92094.34
2023-01-15T22:05:25.572Z,92081.31
2023-01-15T22:08:28.714Z,92081.66
2023-01-15T22:11:46.879Z,92078.47
2023-01-15T22:14:50.397Z,92080.84
2023-01-15T22:17:58.033Z,92074.59
2023-01-15T22:21:06.480Z,92072.44
2023-01-15T22:24:09.652Z,92064.56
2023-01-15T22:27:16.577Z,92067.56
2023-01-15T22:30:19.833Z,92068.34
2023-01-15T22:33:23.165Z,92062.66
2023-01-15T22:36:27.696Z,92064.31
2023-01-15T22:39:31.198Z,92069.88
2023-01-15T22:42:34.368Z,92065.41
2023-01-15T22:45:37.507Z,92061.31
2023-01-15T22:48:41.004Z,92066.56
2023-01-15T22:51:44.808Z,92072.28
2023-01-15T22:54:47.740Z,92077.78
2023-01-15T22:57:50.894Z,92075.41
2023-01-15T23:00:57.727Z,92088.44
2023-01-15T23:04:01.438Z,92076.88
2023-01-15T23:07:04.759Z,92082.69
2023-01-15T23:10:10.921Z,92079.94
2023-01-15T23:13:14.623Z,92072.94
2023-01-15T23:16:18.227Z,92072.56
2023-01-15T23:19:21.697Z,92074.69
2023-01-15T23:22:27.933Z,92069.28
2023-01-15T23:25:31.646Z,92061.59
2023-01-15T23:28:35.163Z,92056.38
2023-01-15T23:31:38.514Z,92063.34
2023-01-15T23:34:41.980Z,92062.94
2023-01-15T23:37:45.173Z,92059.72
2023-01-15T23:40:48.934Z,92064.53
2023-01-15T23:44:27.211Z,92064.75
2023-01-15T23:47:31.125Z,92071.84
2023-01-15T23:50:34.055Z,92070.25
2023-01-15T23:53:37.270Z,92072.16
2023-01-15T23:56:40.472Z,92061.47
2023-01-15T23:59:44.571Z,92068.66
